Nearby METAR Reports

 

EICK - Cork Airport, Ireland
Distance from station: W 140km
Updated: 16/07/2024 12:30
Mostly cloudy
Mostly cloudy
 Wind from NW
Wind: NW 19 km/h
Temperature: 17°C
Dew Point: 11°C
Humidity: 68%
Barometer: 1015 hPa
Clouds: Mostly cloudy
Visibility: 10 km
Cloud details: Partly cloudy 732 m
Mostly cloudy 6401 m
2024/07/16 11:30 EICK 161130Z 32010KT 290V350 9999 SCT024 BKN210 17/11 Q1015 NOSIG
EIDW - Dublin Airport, Ireland
Distance from station: N 140km
Updated: 16/07/2024 12:30
Mostly cloudy
Mostly cloudy
 Wind from WNW
Wind: WNW 22 km/h
Temperature: 16°C
Dew Point: 13°C
Humidity: 83%
Barometer: 1012 hPa
Clouds: Mostly cloudy
Visibility: 10 km
Cloud details: Partly cloudy 305 m
Mostly cloudy 549 m
2024/07/16 11:30 EIDW 161130Z 29012KT 9999 SCT010 BKN018 16/13 Q1012 NOSIG
 
EINN - Shannon Airport, Ireland
Distance from station: W 135km
Updated: 16/07/2024 12:30
Mostly cloudy
Mostly cloudy
 Wind from W
Wind: W 19 km/h
Temperature: 17°C
Dew Point: 10°C
Humidity: 64%
Barometer: 1014 hPa
Clouds: Mostly cloudy
Visibility: 10 km
Cloud details: Few Clouds 640 m
Mostly cloudy 914 m
2024/07/16 11:30 EINN 161130Z 28010KT 9999 FEW021 BKN030 17/10 Q1014 NOSIG
EIKN - Connaught Airport, Ireland
Distance from station: NW 200km
Updated: 16/07/2024 12:30
Mostly cloudy
Mostly cloudy
 Wind from NW
Wind: NW 11 km/h
Temperature: 16°C
Dew Point: 9°C
Humidity: 63%
Barometer: 1013 hPa
Clouds: Mostly cloudy
Visibility: 10 km
Cloud details: Mostly cloudy 823 m
2024/07/16 11:30 EIKN 161130Z 31006KT 270V060 9999 BKN027 16/09 Q1013 NOSIG
 
EIWF - Waterford Airport, Ireland
Distance from station: SE 14km
Updated: 16/07/2024 12:30
Partly cloudy
Partly cloudy
 Wind from NW
Wind: NW 15 km/h
Temperature: 18°C
Dew Point: 14°C
Humidity: 78%
Barometer: 1014 hPa
Clouds: Partly cloudy
Visibility: 10 km
Cloud details: Few Clouds 579 m
Partly cloudy 792 m
2024/07/16 11:30 EIWF 161130Z 32008KT 270V360 9999 FEW019 SCT026 18/14 Q1014